Time,TemperatureF,DewpointF,PressureIn,WindDirection,WindDirectionDegrees,WindSpeedMPH,WindSpeedGustMPH,Humidity,HourlyPrecipIn,Conditions,Clouds,dailyrainin,SoftwareType,DateUTC
2013-04-16 00:00:00,71.0,62.6,30.83,East,90,0.0,0.0,75,0.00,,,0.00,Weather View 32 v70,2013-04-16 04:00:00,
2013-04-16 00:30:00,71.0,63.4,30.84,East,90,0.0,0.0,77,0.00,,,0.00,Weather View 32 v70,2013-04-16 04:30:00,
2013-04-16 01:00:00,71.0,64.1,30.84,East,90,0.0,0.0,79,0.00,,,0.00,Weather View 32 v70,2013-04-16 05:00:00,
2013-04-16 01:30:00,71.0,65.2,30.84,East,90,0.0,0.0,82,0.00,,,0.00,Weather View 32 v70,2013-04-16 05:30:00,
2013-04-16 02:00:00,70.0,65.3,30.85,East,90,0.0,0.0,85,0.00,,,0.00,Weather View 32 v70,2013-04-16 06:00:00,
2013-04-16 02:30:00,69.0,65.3,30.85,East,90,0.0,0.0,88,0.00,,,0.00,Weather View 32 v70,2013-04-16 06:30:00,
2013-04-16 03:00:00,68.0,66.2,30.85,East,90,0.0,0.0,94,0.00,,,0.00,Weather View 32 v70,2013-04-16 07:00:00,
2013-04-16 03:30:00,68.0,66.8,30.84,East,90,0.0,0.0,96,0.00,,,0.00,Weather View 32 v70,2013-04-16 07:30:00,
2013-04-16 04:00:00,68.0,67.1,30.85,East,90,0.0,0.0,97,0.00,,,0.00,Weather View 32 v70,2013-04-16 08:00:00,
2013-04-16 04:30:00,67.0,66.4,30.86,East,90,0.0,0.0,98,0.00,,,0.00,Weather View 32 v70,2013-04-16 08:30:00,
2013-04-16 05:00:00,67.0,66.7,30.86,East,90,0.0,0.0,99,0.00,,,0.00,Weather View 32 v70,2013-04-16 09:00:00,
2013-04-16 05:30:00,67.0,67.0,30.87,East,90,0.0,0.0,100,0.00,,,0.00,Weather View 32 v70,2013-04-16 09:30:00,
2013-04-16 06:00:00,67.0,67.0,30.88,East,90,0.0,0.0,100,0.00,,,0.00,Weather View 32 v70,2013-04-16 10:00:00,
2013-04-16 06:30:00,67.0,67.0,30.90,East,90,0.0,1.0,100,0.00,,,0.00,Weather View 32 v70,2013-04-16 10:30:00,
2013-04-16 07:00:00,68.0,68.0,30.91,East,90,0.0,1.0,100,0.00,,,0.00,Weather View 32 v70,2013-04-16 11:00:00,
2013-04-16 07:30:00,68.0,68.0,30.93,East,90,0.0,2.0,100,0.00,,,0.00,Weather View 32 v70,2013-04-16 11:30:00,
2013-04-16 08:00:00,69.0,69.0,30.94,East,90,0.0,2.0,100,0.00,,,0.00,Weather View 32 v70,2013-04-16 12:00:00,
2013-04-16 08:30:00,70.0,70.0,30.94,ENE,67,0.0,1.0,100,0.00,,,0.00,Weather View 32 v70,2013-04-16 12:30:00,
2013-04-16 09:00:00,75.0,72.2,30.92,ENE,67,0.0,2.0,91,0.00,,,0.00,Weather View 32 v70,2013-04-16 13:00:00,
2013-04-16 09:30:00,81.0,70.7,30.80,ESE,112,0.0,2.0,71,0.00,,,0.00,Weather View 32 v70,2013-04-16 13:30:00,
2013-04-16 10:00:00,84.0,70.9,30.72,ENE,67,0.0,3.0,65,0.00,,,0.00,Weather View 32 v70,2013-04-16 14:00:00,
2013-04-16 10:30:00,85.0,70.0,30.66,NE,45,0.0,3.0,61,0.00,,,0.00,Weather View 32 v70,2013-04-16 14:30:00,
2013-04-16 11:00:00,88.0,69.2,30.58,North,360,0.0,3.0,54,0.00,,,0.00,Weather View 32 v70,2013-04-16 15:00:00,
2013-04-16 11:30:00,90.0,68.2,30.50,ENE,67,0.0,3.0,49,0.00,,,0.00,Weather View 32 v70,2013-04-16 15:30:00,
2013-04-16 12:00:00,89.0,67.3,30.43,SE,135,0.0,3.0,49,0.00,,,0.00,Weather View 32 v70,2013-04-16 16:00:00,
2013-04-16 12:30:00,87.0,67.2,30.54,ESE,112,0.0,3.0,52,0.00,,,0.00,Weather View 32 v70,2013-04-16 16:30:00,
2013-04-16 13:00:00,86.0,67.3,30.41,NE,45,0.0,4.0,54,0.00,,,0.00,Weather View 32 v70,2013-04-16 17:00:00,
2013-04-16 13:30:00,86.0,66.3,30.48,South,180,0.0,4.0,52,0.00,,,0.00,Weather View 32 v70,2013-04-16 17:30:00,
2013-04-16 13:43:00,86.0,66.8,30.52,North,360,0.0,4.0,53,0.00,,,0.00,Weather View 32 v70,2013-04-16 17:43:00,
2013-04-16 13:48:00,85.0,67.0,30.52,North,360,0.0,4.0,55,0.00,,,0.00,Weather View 32 v70,2013-04-16 17:48:00,
2013-04-16 13:53:00,85.0,67.5,30.55,NE,45,0.0,4.0,56,0.00,,,0.00,Weather View 32 v70,2013-04-16 17:53:00,
2013-04-16 13:58:00,85.0,67.0,30.55,ENE,67,0.0,4.0,55,0.00,,,0.00,Weather View 32 v70,2013-04-16 17:58:00,
2013-04-16 14:03:00,85.0,67.0,30.57,ENE,67,0.0,4.0,55,0.00,,,0.00,Weather View 32 v70,2013-04-16 18:03:00,
2013-04-16 14:08:00,84.0,68.1,30.57,North,360,0.0,4.0,59,0.00,,,0.00,Weather View 32 v70,2013-04-16 18:08:00,
2013-04-16 14:13:00,84.0,68.1,30.60,East,90,0.0,4.0,59,0.00,,,0.00,Weather View 32 v70,2013-04-16 18:13:00,
2013-04-16 14:18:00,84.0,67.6,30.60,NE,45,0.0,4.0,58,0.00,,,0.00,Weather View 32 v70,2013-04-16 18:18:00,
2013-04-16 14:23:00,84.0,68.1,30.61,NE,45,0.0,4.0,59,0.00,,,0.00,Weather View 32 v70,2013-04-16 18:23:00,
2013-04-16 14:28:00,84.0,68.1,30.61,NE,45,0.0,4.0,59,0.00,,,0.00,Weather View 32 v70,2013-04-16 18:28:00,
2013-04-16 14:30:00,84.0,68.1,30.62,NE,45,0.0,4.0,59,0.00,,,0.00,Weather View 32 v70,2013-04-16 18:30:00,
2013-04-16 14:33:00,84.0,68.1,30.62,East,90,0.0,4.0,59,0.00,,,0.00,Weather View 32 v70,2013-04-16 18:33:00,
2013-04-16 14:38:00,83.0,67.1,30.62,East,90,0.0,4.0,59,0.00,,,0.00,Weather View 32 v70,2013-04-16 18:38:00,
2013-04-16 14:43:00,83.0,67.6,30.64,North,360,0.0,4.0,60,0.00,,,0.00,Weather View 32 v70,2013-04-16 18:43:00,
2013-04-16 14:48:00,83.0,68.6,30.64,ENE,67,0.0,4.0,62,0.00,,,0.00,Weather View 32 v70,2013-04-16 18:48:00,
2013-04-16 14:53:00,83.0,67.6,30.64,NE,45,0.0,4.0,60,0.00,,,0.00,Weather View 32 v70,2013-04-16 18:53:00,
2013-04-16 14:58:00,83.0,67.6,30.64,SE,135,0.0,4.0,60,0.00,,,0.00,Weather View 32 v70,2013-04-16 18:58:00,
2013-04-16 15:03:00,83.0,68.1,30.65,NNW,337,0.0,4.0,61,0.00,,,0.00,Weather View 32 v70,2013-04-16 19:03:00,
2013-04-16 15:08:00,83.0,68.1,30.65,ESE,112,0.0,4.0,61,0.00,,,0.00,Weather View 32 v70,2013-04-16 19:08:00,
2013-04-16 15:13:00,83.0,68.1,30.65,East,90,0.0,4.0,61,0.00,,,0.00,Weather View 32 v70,2013-04-16 19:13:00,
2013-04-16 15:18:00,83.0,68.1,30.65,North,360,1.0,4.0,61,0.00,,,0.00,Weather View 32 v70,2013-04-16 19:18:00,
2013-04-16 15:23:00,82.0,66.7,30.67,East,90,0.0,4.0,60,0.00,,,0.00,Weather View 32 v70,2013-04-16 19:23:00,
2013-04-16 15:30:00,82.0,67.2,30.67,ESE,112,0.0,4.0,61,0.00,,,0.00,Weather View 32 v70,2013-04-16 19:30:00,
2013-04-16 16:00:00,82.0,67.2,30.68,West,270,0.0,3.0,61,0.00,,,0.00,Weather View 32 v70,2013-04-16 20:00:00,
2013-04-16 16:30:00,82.0,67.6,30.70,NNW,337,0.0,3.0,62,0.00,,,0.00,Weather View 32 v70,2013-04-16 20:30:00,
2013-04-16 17:00:00,81.0,66.7,30.71,NE,45,0.0,3.0,62,0.00,,,0.00,Weather View 32 v70,2013-04-16 21:00:00,
2013-04-16 17:30:00,80.0,65.8,30.73,East,90,0.0,3.0,62,0.00,,,0.00,Weather View 32 v70,2013-04-16 21:30:00,
2013-04-16 18:00:00,79.0,65.7,30.76,ESE,112,0.0,2.0,64,0.00,,,0.00,Weather View 32 v70,2013-04-16 22:00:00,
2013-04-16 18:30:00,79.0,65.7,30.77,ENE,67,0.0,3.0,64,0.00,,,0.00,Weather View 32 v70,2013-04-16 22:30:00,
2013-04-16 19:00:00,77.0,65.2,30.79,North,360,0.0,4.0,67,0.00,,,0.00,Weather View 32 v70,2013-04-16 23:00:00,
2013-04-16 19:30:00,76.0,65.5,30.81,NE,45,0.0,4.0,70,0.00,,,0.00,Weather View 32 v70,2013-04-16 23:30:00,
2013-04-16 20:00:00,75.0,65.3,30.83,East,90,0.0,3.0,72,0.00,,,0.00,Weather View 32 v70,2013-04-17 00:00:00,
2013-04-16 20:30:00,74.0,65.2,30.84,ESE,112,0.0,3.0,74,0.00,,,0.00,Weather View 32 v70,2013-04-17 00:30:00,
2013-04-16 21:00:00,73.0,65.3,30.86,East,90,0.0,2.0,77,0.00,,,0.00,Weather View 32 v70,2013-04-17 01:00:00,
2013-04-16 21:30:00,72.0,66.2,30.88,East,90,0.0,2.0,82,0.00,,,0.00,Weather View 32 v70,2013-04-17 01:30:00,
2013-04-16 22:00:00,71.0,65.2,30.90,ESE,112,0.0,1.0,82,0.00,,,0.00,Weather View 32 v70,2013-04-17 02:00:00,
2013-04-16 22:30:00,71.0,65.9,30.90,ESE,112,0.0,1.0,84,0.00,,,0.00,Weather View 32 v70,2013-04-17 02:30:00,
2013-04-16 23:00:00,70.0,65.9,30.91,ENE,67,0.0,0.0,87,0.00,,,0.00,Weather View 32 v70,2013-04-17 03:00:00,
2013-04-16 23:30:00,70.0,66.9,30.92,East,90,0.0,1.0,90,0.00,,,0.00,Weather View 32 v70,2013-04-17 03:30:00,